createdAt,value
2019-01-21T00:00:19.444Z,45.43
2019-01-21T00:02:47.843Z,46.88
2019-01-21T00:05:16.260Z,45.70
2019-01-21T00:07:44.665Z,45.40
2019-01-21T00:10:13.081Z,44.58
2019-01-21T00:12:41.477Z,44.80
2019-01-21T00:15:10.232Z,45.67
2019-01-21T00:17:38.634Z,45.50
2019-01-21T00:20:07.699Z,47.15
2019-01-21T00:22:36.114Z,48.17
2019-01-21T00:25:06.415Z,47.23
2019-01-21T00:27:34.816Z,44.85
2019-01-21T00:30:03.492Z,48.50
2019-01-21T00:32:31.907Z,47.80
2019-01-21T00:35:00.360Z,47.98
2019-01-21T00:37:28.832Z,47.35
2019-01-21T00:39:57.244Z,48.55
2019-01-21T00:42:27.594Z,48.92
2019-01-21T00:44:55.972Z,48.70
2019-01-21T00:47:29.753Z,49.90
2019-01-21T00:49:54.768Z,50.70
2019-01-21T00:52:23.168Z,48.42
2019-01-21T00:54:51.628Z,51.08
2019-01-21T00:57:20.048Z,50.20
2019-01-21T00:59:48.467Z,50.73
2019-01-21T01:02:16.862Z,49.75
2019-01-21T01:04:45.328Z,51.37
2019-01-21T01:07:13.735Z,49.23
2019-01-21T01:09:42.139Z,47.57
2019-01-21T01:12:10.539Z,48.40
2019-01-21T01:14:38.947Z,49.00
2019-01-21T01:17:07.351Z,46.68
2019-01-21T01:19:36.099Z,48.17
2019-01-21T01:22:04.508Z,49.58
2019-01-21T01:24:32.906Z,47.67
2019-01-21T01:27:01.311Z,47.17
2019-01-21T01:29:29.721Z,48.60
2019-01-21T01:31:58.128Z,48.25
2019-01-21T01:34:26.539Z,48.83
2019-01-21T01:36:54.952Z,48.50
2019-01-21T01:39:23.351Z,46.75
2019-01-21T01:41:51.759Z,46.77
2019-01-21T01:44:20.497Z,46.55
2019-01-21T01:46:48.904Z,46.42
2019-01-21T01:49:17.318Z,48.08
2019-01-21T01:51:45.727Z,46.15
2019-01-21T01:54:14.135Z,47.45
2019-01-21T01:56:42.543Z,48.80
2019-01-21T01:59:11.521Z,45.40
2019-01-21T02:01:40.244Z,47.23
2019-01-21T02:04:08.712Z,46.13
2019-01-21T02:06:37.123Z,49.47
2019-01-21T02:09:07.376Z,46.02
2019-01-21T02:11:36.167Z,48.42
2019-01-21T02:14:05.016Z,45.67
2019-01-21T02:16:33.419Z,44.88
2019-01-21T02:19:01.832Z,48.10
2019-01-21T02:21:32.575Z,46.08
2019-01-21T02:24:04.408Z,44.55
2019-01-21T02:26:35.716Z,46.50
2019-01-21T02:29:07.244Z,44.00
2019-01-21T02:31:44.463Z,43.92
2019-01-21T02:34:37.087Z,45.08
2019-01-21T02:37:28.018Z,45.67
2019-01-21T02:40:22.592Z,47.15
2019-01-21T02:43:09.253Z,45.70
2019-01-21T02:46:03.757Z,46.13
2019-01-21T02:48:53.020Z,47.70
2019-01-21T02:51:41.114Z,45.10
2019-01-21T02:54:24.335Z,46.93
2019-01-21T02:56:58.822Z,46.18
2019-01-21T02:59:39.089Z,46.85
2019-01-21T03:02:31.272Z,46.23
2019-01-21T03:05:11.307Z,48.33
2019-01-21T03:07:57.616Z,47.35
2019-01-21T03:10:37.976Z,48.42
2019-01-21T03:13:23.899Z,47.45
2019-01-21T03:16:07.491Z,48.10
2019-01-21T03:18:56.384Z,48.70
2019-01-21T03:21:27.884Z,47.80
2019-01-21T03:24:17.903Z,47.15
2019-01-21T03:27:15.043Z,49.45
2019-01-21T03:29:55.273Z,47.00
2019-01-21T03:32:29.683Z,49.27
2019-01-21T03:35:01.440Z,49.75
2019-01-21T03:37:39.000Z,48.68
2019-01-21T03:40:22.349Z,49.30
2019-01-21T03:42:53.843Z,49.23
2019-01-21T03:45:27.916Z,47.90
2019-01-21T03:47:59.816Z,48.57
2019-01-21T03:50:50.810Z,51.18
2019-01-21T03:53:34.408Z,49.00
2019-01-21T03:56:05.397Z,47.50
2019-01-21T03:58:57.494Z,47.70
2019-01-21T04:01:34.668Z,47.48
2019-01-21T04:04:15.053Z,47.95
2019-01-21T04:06:49.276Z,48.55
2019-01-21T04:09:38.957Z,50.60
2019-01-21T04:12:22.628Z,47.15
2019-01-21T04:14:56.839Z,51.20
2019-01-21T04:17:37.856Z,49.88
2019-01-21T04:20:15.167Z,49.05
2019-01-21T04:22:55.624Z,50.10
2019-01-21T04:25:36.317Z,48.90
2019-01-21T04:28:22.999Z,47.03
2019-01-21T04:30:56.938Z,49.63
2019-01-21T04:34:03.286Z,48.73
2019-01-21T04:36:37.356Z,48.02
2019-01-21T04:39:26.295Z,47.43
2019-01-21T04:42:26.408Z,47.50
2019-01-21T04:45:00.780Z,46.63
2019-01-21T04:47:56.367Z,45.15
2019-01-21T04:50:33.367Z,65.52
2019-01-21T04:53:21.437Z,46.10
2019-01-21T04:56:09.611Z,46.35
2019-01-21T04:58:47.263Z,45.52
2019-01-21T05:01:21.969Z,46.42
2019-01-21T05:03:56.625Z,45.88
2019-01-21T05:06:47.597Z,46.05
2019-01-21T05:09:31.184Z,43.48
2019-01-21T05:12:08.760Z,46.08
2019-01-21T05:14:52.039Z,44.50
2019-01-21T05:17:41.627Z,46.73
2019-01-21T05:20:34.013Z,42.17
2019-01-21T05:23:11.165Z,44.58
2019-01-21T05:25:45.320Z,43.95
2019-01-21T05:28:23.384Z,43.83
2019-01-21T05:31:28.090Z,44.60
2019-01-21T05:34:02.515Z,44.38
2019-01-21T05:36:39.566Z,43.65
2019-01-21T05:39:28.376Z,45.05
2019-01-21T05:42:22.503Z,44.93
2019-01-21T05:44:59.812Z,45.37
2019-01-21T05:47:31.295Z,45.78
2019-01-21T05:50:28.431Z,44.53
2019-01-21T05:53:05.786Z,44.10
2019-01-21T05:55:55.389Z,43.25
2019-01-21T05:58:49.131Z,45.93
2019-01-21T06:01:44.889Z,43.63
2019-01-21T06:04:37.541Z,44.40
2019-01-21T06:07:20.760Z,41.55
2019-01-21T06:09:58.233Z,44.55
2019-01-21T06:12:29.703Z,42.80
2019-01-21T06:15:16.448Z,42.98
2019-01-21T06:18:02.977Z,43.50
2019-01-21T06:20:55.763Z,42.48
2019-01-21T06:23:29.981Z,43.25
2019-01-21T06:26:28.344Z,44.08
2019-01-21T06:29:08.864Z,43.20
2019-01-21T06:31:49.352Z,44.38
2019-01-21T06:34:37.820Z,42.75
2019-01-21T06:37:15.408Z,44.53
2019-01-21T06:40:03.477Z,44.45
2019-01-21T06:42:52.855Z,42.23
2019-01-21T06:45:27.265Z,44.73
2019-01-21T06:48:13.797Z,45.55
2019-01-21T06:51:01.608Z,43.83
2019-01-21T06:53:35.669Z,42.05
2019-01-21T07:00:03.512Z,45.03
2019-01-21T07:02:54.175Z,48.08
2019-01-21T07:05:40.202Z,49.38
2019-01-21T07:08:20.499Z,46.10
2019-01-21T07:10:54.851Z,46.30
2019-01-21T07:13:49.203Z,49.55
2019-01-21T07:16:32.680Z,48.10
2019-01-21T07:19:18.583Z,48.38
2019-01-21T07:22:01.797Z,48.68
2019-01-21T07:24:51.416Z,46.95
2019-01-21T07:27:25.333Z,48.08
2019-01-21T07:30:16.539Z,48.55
2019-01-21T07:33:06.289Z,47.73
2019-01-21T07:35:46.812Z,47.80
2019-01-21T07:38:20.951Z,49.58
2019-01-21T07:40:55.356Z,46.33
2019-01-21T07:43:43.617Z,46.50
2019-01-21T07:46:23.552Z,46.93
2019-01-21T07:49:17.712Z,47.23
2019-01-21T07:55:32.659Z,44.80
2019-01-21T07:58:12.971Z,45.48
2019-01-21T08:00:47.717Z,47.30
2019-01-21T08:03:25.328Z,48.53
2019-01-21T08:05:56.823Z,45.17
2019-01-21T08:08:37.099Z,46.85
2019-01-21T08:11:26.738Z,52.05
2019-01-21T08:14:13.152Z,47.23
2019-01-21T08:17:07.264Z,45.00
2019-01-21T08:19:47.520Z,45.58
2019-01-21T08:22:24.919Z,47.48
2019-01-21T08:24:58.978Z,47.30
2019-01-21T08:27:38.795Z,48.23
2019-01-21T08:30:10.324Z,48.05
2019-01-21T08:33:14.995Z,49.20
2019-01-21T08:36:02.837Z,46.23
2019-01-21T08:38:49.093Z,47.17
2019-01-21T08:41:38.382Z,44.90
2019-01-21T08:44:33.984Z,45.05
2019-01-21T08:47:11.307Z,44.73
2019-01-21T08:49:48.027Z,46.05
2019-01-21T08:52:22.365Z,44.65
2019-01-21T08:55:12.167Z,46.37
2019-01-21T08:57:55.735Z,64.15
2019-01-21T09:00:44.676Z,46.25
2019-01-21T09:03:16.464Z,43.33
2019-01-21T09:05:50.532Z,43.68
2019-01-21T09:08:37.621Z,43.17
2019-01-21T09:11:19.385Z,43.78
2019-01-21T09:13:56.653Z,43.48
2019-01-21T09:16:34.036Z,43.28
2019-01-21T09:19:21.913Z,42.55
2019-01-21T09:22:05.431Z,56.33
2019-01-21T09:24:49.824Z,42.38
2019-01-21T09:27:27.196Z,43.75
2019-01-21T09:30:07.529Z,44.95
2019-01-21T09:32:39.023Z,44.75
2019-01-21T09:35:28.557Z,43.60
2019-01-21T09:38:19.191Z,43.38
2019-01-21T09:41:02.421Z,42.78
2019-01-21T09:43:42.350Z,44.85
2019-01-21T09:46:16.553Z,43.95
2019-01-21T09:48:43.892Z,42.00
2019-01-21T09:51:13.367Z,42.95
2019-01-21T09:53:43.828Z,42.00
2019-01-21T09:56:12.296Z,42.43
2019-01-21T09:58:41.660Z,42.65
2019-01-21T10:01:10.391Z,41.65
2019-01-21T10:03:39.064Z,41.20
2019-01-21T10:06:07.847Z,41.40
2019-01-21T10:09:12.366Z,49.63
2019-01-21T10:11:52.137Z,40.43
2019-01-21T10:14:29.344Z,42.65
2019-01-21T10:17:09.608Z,39.83
2019-01-21T10:19:41.105Z,39.42
2019-01-21T10:22:27.705Z,41.45
2019-01-21T10:25:23.407Z,40.10
2019-01-21T10:28:00.477Z,39.15
2019-01-21T10:30:32.096Z,39.38
2019-01-21T10:33:30.692Z,40.60
2019-01-21T10:36:17.111Z,39.58
2019-01-21T10:39:00.873Z,41.77
2019-01-21T10:41:38.231Z,41.00
2019-01-21T10:44:12.556Z,41.00
2019-01-21T10:47:08.216Z,40.37
2019-01-21T10:49:48.872Z,44.08
2019-01-21T10:52:35.497Z,40.38
2019-01-21T10:55:29.795Z,42.30
2019-01-21T10:58:03.864Z,41.75
2019-01-21T11:00:56.575Z,41.40
2019-01-21T11:03:40.070Z,42.15
2019-01-21T11:06:14.408Z,40.20
2019-01-21T11:08:48.850Z,41.90
2019-01-21T11:11:54.085Z,40.43
2019-01-21T11:14:37.958Z,38.65
2019-01-21T11:17:24.383Z,40.92
2019-01-21T11:20:07.184Z,40.30
2019-01-21T11:22:42.121Z,38.95
2019-01-21T11:25:33.609Z,38.58
2019-01-21T11:28:14.128Z,37.63
2019-01-21T11:30:57.659Z,38.23
2019-01-21T11:33:31.811Z,36.20
2019-01-21T11:36:12.245Z,36.88
2019-01-21T11:38:43.792Z,36.50
2019-01-21T11:41:15.279Z,37.00
2019-01-21T11:43:46.771Z,36.65
2019-01-21T11:46:18.276Z,37.45
2019-01-21T11:48:59.188Z,33.75
2019-01-21T11:51:42.665Z,35.95
2019-01-21T11:54:32.056Z,35.55
2019-01-21T11:57:20.759Z,34.90
2019-01-21T11:59:57.943Z,34.53
2019-01-21T12:02:37.949Z,33.65
2019-01-21T12:05:09.432Z,34.33
2019-01-21T12:08:15.577Z,33.60
2019-01-21T12:11:08.292Z,33.77
2019-01-21T12:14:08.353Z,33.98
2019-01-21T12:16:51.808Z,35.65
2019-01-21T12:19:29.256Z,33.80
2019-01-21T12:22:09.611Z,35.52
2019-01-21T12:24:38.295Z,33.30
2019-01-21T12:27:21.841Z,34.37
2019-01-21T12:30:25.596Z,35.35
2019-01-21T12:33:11.976Z,33.88
2019-01-21T12:36:06.040Z,36.60
2019-01-21T12:38:40.343Z,34.67
2019-01-21T12:41:21.616Z,34.00
2019-01-21T12:43:53.818Z,34.00
2019-01-21T12:46:40.308Z,34.95
2019-01-21T12:49:28.201Z,33.05
2019-01-21T12:52:05.307Z,33.60
2019-01-21T12:54:48.576Z,33.55
2019-01-21T12:57:28.396Z,33.20
2019-01-21T13:00:19.843Z,33.35
2019-01-21T13:02:51.335Z,32.55
2019-01-21T13:05:25.496Z,33.20
2019-01-21T13:08:05.768Z,33.55
2019-01-21T13:10:55.657Z,32.60
2019-01-21T13:13:51.452Z,33.18
2019-01-21T13:16:25.713Z,33.17
2019-01-21T13:19:16.243Z,32.20
2019-01-21T13:22:04.228Z,33.35
2019-01-21T13:24:51.359Z,33.35
2019-01-21T13:27:40.972Z,32.85
2019-01-21T13:30:15.229Z,32.67
2019-01-21T13:32:46.726Z,33.03
2019-01-21T13:35:23.899Z,34.90
2019-01-21T13:38:01.356Z,34.50
2019-01-21T13:40:41.373Z,34.05
2019-01-21T13:43:17.627Z,35.30
2019-01-21T13:46:23.792Z,34.08
2019-01-21T13:49:06.640Z,35.50
2019-01-21T13:52:12.894Z,36.40
2019-01-21T13:54:53.044Z,36.15
2019-01-21T13:57:42.437Z,35.58
2019-01-21T14:00:22.279Z,35.45
2019-01-21T14:03:13.377Z,35.15
2019-01-21T14:06:18.373Z,34.50
2019-01-21T14:09:01.838Z,34.83
2019-01-21T14:11:45.429Z,36.48
2019-01-21T14:14:19.896Z,33.67
2019-01-21T14:17:00.769Z,33.70
2019-01-21T14:19:34.963Z,34.43
2019-01-21T14:22:15.595Z,34.03
2019-01-21T14:24:56.132Z,36.30
2019-01-21T14:27:42.673Z,35.10
2019-01-21T14:30:30.712Z,38.08
2019-01-21T14:33:13.920Z,35.35
2019-01-21T14:35:51.342Z,35.30
2019-01-21T14:38:29.027Z,36.20
2019-01-21T14:41:06.362Z,35.45
2019-01-21T14:43:46.484Z,34.60
2019-01-21T14:46:33.233Z,35.43
2019-01-21T14:49:21.302Z,35.40
2019-01-21T14:52:09.187Z,35.55
2019-01-21T14:54:51.999Z,35.08
2019-01-21T14:57:35.514Z,35.28
2019-01-21T15:00:23.641Z,35.60
2019-01-21T15:03:03.729Z,37.40
2019-01-21T15:05:53.540Z,36.23
2019-01-21T15:08:25.370Z,35.60
2019-01-21T15:10:57.023Z,37.80
2019-01-21T15:13:34.400Z,34.70
2019-01-21T15:16:23.836Z,36.20
2019-01-21T15:19:01.110Z,36.73
2019-01-21T15:21:41.386Z,35.17
2019-01-21T15:24:18.767Z,37.60
2019-01-21T15:27:04.687Z,36.55
2019-01-21T15:29:38.982Z,36.17
2019-01-21T15:32:25.092Z,37.80
2019-01-21T15:34:59.569Z,37.25
2019-01-21T15:37:55.598Z,37.93
2019-01-21T15:40:48.144Z,37.63
2019-01-21T15:43:46.556Z,37.67
2019-01-21T15:46:32.953Z,38.75
2019-01-21T15:49:13.083Z,38.88
2019-01-21T15:51:53.392Z,37.05
2019-01-21T15:54:36.955Z,36.50
2019-01-21T15:57:14.208Z,35.20
2019-01-21T16:00:00.599Z,36.55
2019-01-21T16:02:53.495Z,35.75
2019-01-21T16:05:40.135Z,36.17
2019-01-21T16:08:11.720Z,35.58
2019-01-21T16:10:49.112Z,36.08
2019-01-21T16:13:29.497Z,36.13
2019-01-21T16:16:13.003Z,35.80
2019-01-21T16:18:47.472Z,35.75
2019-01-21T16:21:37.112Z,34.83
2019-01-21T16:24:23.833Z,37.00
2019-01-21T16:26:57.976Z,36.30
2019-01-21T16:29:29.498Z,36.55
2019-01-21T16:31:59.456Z,36.70
2019-01-21T16:34:46.854Z,35.92
2019-01-21T16:37:20.807Z,35.43
2019-01-21T16:39:54.860Z,34.98
2019-01-21T16:42:22.248Z,35.95
2019-01-21T16:44:50.662Z,35.15
2019-01-21T16:47:19.123Z,34.35
2019-01-21T16:49:47.532Z,34.08
2019-01-21T16:52:16.005Z,35.98
2019-01-21T16:54:44.439Z,34.67
2019-01-21T16:57:12.866Z,35.40
2019-01-21T16:59:41.314Z,36.10
2019-01-21T17:02:09.785Z,35.63
2019-01-21T17:04:38.190Z,35.78
2019-01-21T17:07:06.613Z,35.60
2019-01-21T17:09:35.020Z,36.05
2019-01-21T17:12:03.427Z,35.55
2019-01-21T17:14:31.849Z,35.23
2019-01-21T17:17:00.251Z,34.98
2019-01-21T17:19:28.668Z,34.45
2019-01-21T17:21:57.128Z,35.25
2019-01-21T17:24:25.561Z,35.25
2019-01-21T17:26:53.997Z,34.67
2019-01-21T17:29:22.403Z,36.03
2019-01-21T17:31:50.815Z,36.68
2019-01-21T17:34:19.314Z,36.33
2019-01-21T17:36:47.699Z,35.97
2019-01-21T17:39:16.125Z,35.30
2019-01-21T17:41:44.508Z,37.25
2019-01-21T17:44:12.947Z,35.88
2019-01-21T17:46:41.372Z,35.78
2019-01-21T17:49:10.775Z,36.73
2019-01-21T17:51:39.179Z,34.33
2019-01-21T17:54:07.601Z,36.30
2019-01-21T17:56:36.074Z,35.45
2019-01-21T17:59:04.576Z,35.10
2019-01-21T18:01:35.757Z,35.70
2019-01-21T18:04:03.150Z,36.10
2019-01-21T18:06:31.587Z,34.18
2019-01-21T18:09:00.003Z,35.25
2019-01-21T18:11:28.432Z,33.38
2019-01-21T18:13:56.860Z,37.08
2019-01-21T18:16:25.306Z,34.13
2019-01-21T18:18:54.134Z,36.88
2019-01-21T18:21:22.521Z,34.87
2019-01-21T18:23:50.941Z,35.43
2019-01-21T18:26:19.356Z,35.80
2019-01-21T18:28:47.756Z,36.83
2019-01-21T18:31:18.066Z,36.23
2019-01-21T18:33:46.507Z,35.63
2019-01-21T18:36:15.546Z,38.20
2019-01-21T18:38:44.069Z,37.05
2019-01-21T18:41:13.352Z,82.85
2019-01-21T18:43:41.792Z,37.33
2019-01-21T18:46:10.276Z,36.90
2019-01-21T18:48:38.727Z,37.65
2019-01-21T18:51:07.203Z,37.70
2019-01-21T18:53:35.632Z,39.40
2019-01-21T18:56:04.386Z,36.30
2019-01-21T18:58:33.093Z,37.80
2019-01-21T19:01:01.492Z,37.70
2019-01-21T19:03:29.891Z,36.10
2019-01-21T19:05:58.388Z,35.95
2019-01-21T19:08:26.792Z,37.45
2019-01-21T19:10:55.223Z,37.55
2019-01-21T19:13:23.636Z,37.23
2019-01-21T19:15:52.060Z,38.02
2019-01-21T19:18:20.459Z,37.70
2019-01-21T19:20:48.868Z,37.70
2019-01-21T19:23:17.273Z,37.15
2019-01-21T19:25:45.715Z,37.67
2019-01-21T19:28:14.108Z,39.95
2019-01-21T19:30:42.532Z,38.75
2019-01-21T19:33:10.931Z,38.40
2019-01-21T19:35:39.338Z,37.48
2019-01-21T19:38:07.753Z,38.13
2019-01-21T19:40:36.175Z,38.75
2019-01-21T19:43:04.576Z,39.30
2019-01-21T19:45:33.085Z,38.98
2019-01-21T19:48:01.492Z,39.23
2019-01-21T19:50:29.927Z,39.33
2019-01-21T19:52:58.340Z,39.23
2019-01-21T19:55:29.687Z,40.63
2019-01-21T19:57:58.107Z,36.00
2019-01-21T20:00:26.586Z,42.33
2019-01-21T20:02:54.993Z,41.10
2019-01-21T20:05:23.400Z,40.10
2019-01-21T20:07:51.800Z,39.60
2019-01-21T20:10:22.244Z,38.25
2019-01-21T20:12:51.089Z,38.85
2019-01-21T20:15:19.875Z,39.63
2019-01-21T20:17:48.299Z,39.47
2019-01-21T20:20:25.363Z,38.20
2019-01-21T20:22:57.361Z,38.63
2019-01-21T20:25:24.016Z,40.10
2019-01-21T20:27:52.639Z,38.20
2019-01-21T20:30:23.088Z,38.15
2019-01-21T20:32:51.828Z,39.63
2019-01-21T20:35:20.240Z,38.30
2019-01-21T20:37:48.645Z,39.45
2019-01-21T20:40:19.964Z,36.75
2019-01-21T20:42:48.391Z,38.75
2019-01-21T20:45:17.164Z,39.27
2019-01-21T20:47:45.592Z,39.05
2019-01-21T20:50:17.024Z,38.85
2019-01-21T20:52:45.527Z,40.58
2019-01-21T20:55:14.671Z,38.65
2019-01-21T20:57:43.087Z,40.12
2019-01-21T21:00:17.444Z,39.35
2019-01-21T21:02:45.861Z,38.88
2019-01-21T21:05:14.505Z,38.45
2019-01-21T21:07:42.915Z,37.80
2019-01-21T21:10:12.476Z,40.47
2019-01-21T21:12:40.879Z,40.70
2019-01-21T21:15:18.171Z,39.50
2019-01-21T21:17:46.588Z,39.42
2019-01-21T21:20:15.427Z,42.35
2019-01-21T21:22:43.860Z,44.70
2019-01-21T21:25:15.367Z,43.83
2019-01-21T21:27:43.783Z,42.40
2019-01-21T21:30:15.723Z,42.87
2019-01-21T21:32:44.153Z,43.95
2019-01-21T21:35:12.633Z,43.45
2019-01-21T21:37:41.428Z,43.40
2019-01-21T21:40:13.125Z,42.27
2019-01-21T21:42:41.525Z,43.10
2019-01-21T21:45:12.652Z,44.95
2019-01-21T21:47:41.054Z,44.60
2019-01-21T21:50:13.048Z,44.25
2019-01-21T21:52:41.467Z,44.10
2019-01-21T21:55:11.347Z,44.38
2019-01-21T21:57:39.757Z,47.48
2019-01-21T22:00:15.118Z,46.25
2019-01-21T22:02:43.573Z,47.45
2019-01-21T22:05:12.236Z,45.83
2019-01-21T22:07:40.729Z,45.98
2019-01-21T22:10:11.906Z,47.60
2019-01-21T22:12:40.372Z,46.83
2019-01-21T22:15:12.509Z,46.50
2019-01-21T22:17:40.903Z,48.23
2019-01-21T22:20:14.645Z,47.40
2019-01-21T22:22:43.148Z,49.27
2019-01-21T22:25:12.008Z,49.10
2019-01-21T22:27:40.414Z,49.40
2019-01-21T22:30:14.553Z,48.83
2019-01-21T22:32:42.960Z,50.83
2019-01-21T22:35:11.440Z,51.63
2019-01-21T22:37:39.851Z,53.17
2019-01-21T22:40:14.080Z,54.00
2019-01-21T22:42:42.549Z,53.28
2019-01-21T22:45:12.803Z,53.80
2019-01-21T22:47:41.200Z,53.95
2019-01-21T22:50:11.751Z,54.88
2019-01-21T22:52:41.973Z,56.25
2019-01-21T22:55:12.271Z,56.02
2019-01-21T22:57:40.751Z,56.05
2019-01-21T23:00:15.249Z,59.73
2019-01-21T23:02:43.930Z,57.33
2019-01-21T23:05:12.631Z,59.42
2019-01-21T23:07:41.052Z,61.53
2019-01-21T23:10:09.704Z,59.70
2019-01-21T23:12:38.133Z,56.10
2019-01-21T23:15:08.383Z,56.40
2019-01-21T23:17:36.794Z,56.85
2019-01-21T23:20:08.523Z,54.90
2019-01-21T23:22:36.941Z,56.95
2019-01-21T23:25:06.162Z,58.75
2019-01-21T23:27:34.593Z,54.63
2019-01-21T23:30:03.097Z,55.83
2019-01-21T23:32:31.584Z,57.85
2019-01-21T23:35:00.005Z,54.53
2019-01-21T23:37:28.424Z,51.95
2019-01-21T23:39:56.868Z,53.42
2019-01-21T23:42:25.653Z,52.70
2019-01-21T23:44:54.057Z,53.28
2019-01-21T23:47:22.480Z,56.50
2019-01-21T23:49:51.928Z,53.10
2019-01-21T23:52:20.328Z,53.43
2019-01-21T23:54:48.728Z,53.60
2019-01-21T23:57:17.148Z,52.63
2019-01-21T23:59:45.552Z,54.50
